Time;durP1;ratioP1;P1;durP2;ratioP2;P2;SDS_P1;SDS_P2;PMS_P1;PMS_P2;Temp;Humidity;BMP_temperature;BMP_pressure;BME280_temperature;BME280_humidity;BME280_pressure;Samples;Min_cycle;Max_cycle;Signal;HPM_P1;HPM_P2
2021/08/27 00:01:52;;;;;;;6.20;4.00;;;16.60;99.90;;;;;;5037006;28;20973;-54
2021/08/27 00:04:20;;;;;;;4.90;3.57;;;16.40;99.90;;;;;;5037461;28;20491;-55
2021/08/27 00:06:47;;;;;;;7.00;4.30;;;16.50;99.90;;;;;;5037442;28;20487;-54
2021/08/27 00:09:14;;;;;;;10.43;4.70;;;16.50;99.90;;;;;;5034168;28;20459;-55
2021/08/27 00:11:42;;;;;;;6.37;4.57;;;16.40;99.90;;;;;;5034075;28;20453;-56
2021/08/27 00:14:09;;;;;;;4.90;3.80;;;16.40;99.90;;;;;;5034274;28;20472;-54
2021/08/27 00:16:36;;;;;;;7.53;4.47;;;16.40;99.90;;;;;;5034417;28;20444;-55
2021/08/27 00:19:03;;;;;;;7.60;4.60;;;16.30;99.90;;;;;;5033913;28;20833;-55
2021/08/27 00:21:31;;;;;;;6.67;4.30;;;16.30;99.90;;;;;;5034216;28;20452;-56
2021/08/27 00:23:58;;;;;;;5.27;4.40;;;16.20;99.90;;;;;;5033799;28;20468;-54
2021/08/27 00:26:25;;;;;;;5.00;3.80;;;16.10;99.90;;;;;;5034033;28;20484;-54
2021/08/27 00:28:53;;;;;;;5.50;4.50;;;16.10;99.90;;;;;;5033822;28;20954;-54
2021/08/27 00:31:20;;;;;;;8.17;4.50;;;16.10;99.90;;;;;;5034192;28;20857;-54
2021/08/27 00:33:47;;;;;;;8.43;4.33;;;16.10;99.90;;;;;;5033189;28;20846;-55
2021/08/27 00:36:15;;;;;;;8.93;4.87;;;16.10;99.90;;;;;;5033889;28;20440;-54
2021/08/27 00:38:42;;;;;;;7.23;5.00;;;16.10;99.90;;;;;;5033887;28;20447;-53
2021/08/27 00:41:09;;;;;;;7.40;4.50;;;16.00;99.90;;;;;;5034079;28;20890;-56
2021/08/27 00:43:36;;;;;;;8.27;4.90;;;15.90;99.90;;;;;;5033576;28;20491;-55
2021/08/27 00:46:04;;;;;;;5.10;4.07;;;15.80;99.90;;;;;;5033411;28;20484;-53
2021/08/27 00:48:31;;;;;;;5.60;4.60;;;15.80;99.90;;;;;;5033755;28;20455;-54
2021/08/27 00:50:58;;;;;;;6.30;4.67;;;15.90;99.90;;;;;;5033502;28;20449;-54
2021/08/27 00:53:25;;;;;;;6.27;4.30;;;15.90;99.90;;;;;;5032943;28;20479;-56
2021/08/27 00:55:53;;;;;;;4.37;3.67;;;15.90;99.90;;;;;;5033913;28;20499;-54
2021/08/27 00:58:23;;;;;;;6.77;4.53;;;16.00;99.90;;;;;;5033459;28;20449;-54
2021/08/27 01:00:50;;;;;;;7.37;5.03;;;15.90;99.90;;;;;;5033258;28;20526;-54
2021/08/27 01:03:19;;;;;;;6.00;4.63;;;15.80;99.90;;;;;;5033220;28;20495;-54
2021/08/27 01:05:48;;;;;;;6.27;4.50;;;15.80;99.90;;;;;;5033298;28;20484;-53
2021/08/27 01:08:25;;;;;;;6.23;4.23;;;15.90;99.90;;;;;;5032742;28;20467;-54
2021/08/27 01:11:01;;;;;;;8.03;4.60;;;15.80;99.90;;;;;;5033266;28;20452;-55
2021/08/27 01:13:38;;;;;;;4.80;3.87;;;15.90;99.90;;;;;;5033015;28;20477;-55
2021/08/27 01:16:10;;;;;;;6.90;4.57;;;15.90;99.90;;;;;;5033205;28;20938;-54
2021/08/27 01:18:44;;;;;;;7.17;4.07;;;15.80;99.90;;;;;;5032905;28;20962;-54
2021/08/27 01:21:33;;;;;;;4.67;4.00;;;15.90;99.90;;;;;;5033125;28;20453;-55
2021/08/27 01:24:01;;;;;;;6.90;4.00;;;15.80;99.90;;;;;;5032602;28;20519;-54
2021/08/27 01:26:34;;;;;;;4.60;3.93;;;15.80;99.90;;;;;;5032712;28;20549;-54
2021/08/27 01:29:03;;;;;;;5.50;4.80;;;15.80;99.90;;;;;;5033205;28;20491;-55
2021/08/27 01:31:36;;;;;;;7.70;5.23;;;15.80;99.90;;;;;;5033049;28;20460;-55
2021/08/27 01:34:17;;;;;;;7.63;5.07;;;15.80;99.90;;;;;;5032868;28;20544;-54
2021/08/27 01:36:47;;;;;;;7.33;5.30;;;15.90;99.90;;;;;;5032201;28;20499;-54
2021/08/27 01:39:16;;;;;;;6.70;4.60;;;15.90;99.90;;;;;;5032442;28;20532;-55
2021/08/27 01:41:48;;;;;;;5.80;4.20;;;15.90;99.90;;;;;;5032641;28;20942;-55
2021/08/27 01:44:16;;;;;;;6.40;4.23;;;15.90;99.90;;;;;;5032648;28;20484;-55
2021/08/27 01:46:44;;;;;;;6.97;4.30;;;15.90;99.90;;;;;;5032625;28;20542;-56
2021/08/27 01:49:13;;;;;;;5.30;4.30;;;15.80;99.90;;;;;;5032228;28;20500;-56
2021/08/27 01:51:42;;;;;;;6.80;4.70;;;15.70;99.90;;;;;;5032377;28;20449;-54
2021/08/27 01:54:12;;;;;;;5.63;4.50;;;15.60;99.90;;;;;;5031952;28;21036;-54
2021/08/27 01:56:40;;;;;;;5.57;4.50;;;15.70;99.90;;;;;;5029625;28;20515;-54
2021/08/27 01:59:08;;;;;;;6.07;4.10;;;15.80;99.90;;;;;;5032191;28;20449;-57
2021/08/27 02:01:36;;;;;;;9.90;4.30;;;15.80;99.90;;;;;;5032540;28;20448;-56
2021/08/27 02:04:08;;;;;;;5.67;4.30;;;15.70;99.90;;;;;;5031570;28;20535;-54
2021/08/27 02:06:36;;;;;;;6.20;4.10;;;15.80;99.90;;;;;;5032114;28;20550;-54
2021/08/27 02:09:05;;;;;;;11.27;5.13;;;15.80;99.90;;;;;;5032428;28;20802;-55
2021/08/27 02:11:34;;;;;;;7.53;4.53;;;15.70;99.90;;;;;;5031820;28;20879;-55
2021/08/27 02:14:02;;;;;;;6.70;4.23;;;15.60;99.90;;;;;;5031298;28;20468;-56
2021/08/27 02:16:29;;;;;;;7.10;4.03;;;15.60;99.90;;;;;;5031866;28;20444;-56
2021/08/27 02:18:57;;;;;;;7.83;4.90;;;15.70;99.90;;;;;;5032107;28;20507;-54
2021/08/27 02:21:28;;;;;;;6.40;4.87;;;15.70;99.90;;;;;;5031501;28;20456;-54
2021/08/27 02:23:57;;;;;;;7.13;5.00;;;15.60;99.90;;;;;;5031672;28;20530;-53
2021/08/27 02:26:24;;;;;;;11.50;4.63;;;15.70;99.90;;;;;;5032065;28;20485;-56
2021/08/27 02:28:53;;;;;;;8.23;4.97;;;15.60;99.90;;;;;;5032093;28;20530;-54
2021/08/27 02:31:21;;;;;;;7.43;4.43;;;15.60;99.90;;;;;;5030961;28;20453;-55
2021/08/27 02:33:49;;;;;;;6.83;5.33;;;15.60;99.90;;;;;;5031665;28;20468;-56
2021/08/27 02:36:19;;;;;;;9.53;4.30;;;15.50;99.90;;;;;;5031088;28;20445;-55
2021/08/27 02:38:48;;;;;;;6.10;4.00;;;15.60;99.90;;;;;;5031653;28;20982;-55
2021/08/27 02:41:15;;;;;;;9.33;4.67;;;15.50;99.90;;;;;;5031930;28;20448;-54
2021/08/27 02:46:12;;;;;;;6.33;4.30;;;15.60;99.90;;;;;;5010738;28;20840;-60
2021/08/27 02:48:39;;;;;;;5.80;3.83;;;15.60;99.90;;;;;;5011700;28;20453;-60
2021/08/27 02:51:11;;;;;;;10.07;4.30;;;15.60;99.90;;;;;;5012180;28;20512;-60
2021/08/27 02:53:42;;;;;;;6.10;4.00;;;15.60;99.90;;;;;;5011302;28;20998;-60
2021/08/27 02:56:17;;;;;;;5.80;3.97;;;15.70;99.90;;;;;;5011979;28;20503;-60
2021/08/27 02:58:47;;;;;;;5.10;3.87;;;15.80;99.90;;;;;;5014301;28;20445;-60
2021/08/27 03:01:24;;;;;;;6.53;3.93;;;15.80;99.90;;;;;;5012393;28;21306;-61
2021/08/27 03:04:03;;;;;;;6.60;3.77;;;15.80;99.90;;;;;;5003841;28;20488;-60
2021/08/27 03:06:36;;;;;;;8.77;4.20;;;15.80;99.90;;;;;;4992243;28;20482;-60
2021/08/27 03:09:08;;;;;;;5.50;4.00;;;15.80;99.90;;;;;;4992472;28;20489;-60
2021/08/27 03:11:41;;;;;;;6.87;3.80;;;15.80;99.90;;;;;;4992428;28;20466;-60
2021/08/27 03:14:13;;;;;;;6.57;4.40;;;15.80;99.90;;;;;;4992579;28;20462;-60
2021/08/27 03:16:46;;;;;;;5.30;3.73;;;15.80;99.90;;;;;;4992204;28;20818;-60
2021/08/27 03:19:20;;;;;;;6.50;4.23;;;15.80;99.90;;;;;;5006537;28;20774;-59
2021/08/27 03:21:52;;;;;;;8.27;4.03;;;15.80;99.90;;;;;;5011305;28;20583;-61
2021/08/27 03:24:23;;;;;;;6.67;4.23;;;15.80;99.90;;;;;;5011601;28;20891;-60
2021/08/27 03:26:55;;;;;;;5.83;4.27;;;15.80;99.90;;;;;;5011921;28;20538;-60
2021/08/27 03:29:25;;;;;;;6.37;4.10;;;15.80;99.90;;;;;;5011755;28;20511;-60
2021/08/27 03:31:54;;;;;;;7.63;4.40;;;15.80;99.90;;;;;;5011701;28;20822;-60
2021/08/27 03:34:21;;;;;;;5.87;4.10;;;15.80;99.90;;;;;;5011450;28;20519;-60
2021/08/27 03:36:50;;;;;;;6.77;4.03;;;15.80;99.90;;;;;;5011452;28;20507;-60
2021/08/27 03:39:17;;;;;;;8.47;5.00;;;15.60;99.90;;;;;;5011154;28;20500;-60
2021/08/27 03:41:44;;;;;;;6.40;3.97;;;15.30;99.90;;;;;;5011087;28;21082;-60
2021/08/27 03:44:15;;;;;;;6.00;4.20;;;15.20;99.90;;;;;;5012923;28;20489;-60
2021/08/27 03:46:42;;;;;;;5.50;4.00;;;15.30;99.90;;;;;;5015559;28;20623;-60
2021/08/27 03:49:12;;;;;;;6.33;4.30;;;15.40;99.90;;;;;;5015603;28;20445;-60
2021/08/27 03:51:40;;;;;;;6.57;4.17;;;15.50;99.90;;;;;;5014891;28;20456;-60
2021/08/27 03:54:07;;;;;;;5.50;4.30;;;15.50;99.90;;;;;;5014658;28;20481;-60
2021/08/27 03:56:34;;;;;;;6.57;4.43;;;15.20;99.90;;;;;;5014889;28;20472;-59
2021/08/27 03:59:02;;;;;;;10.70;5.60;;;15.30;99.90;;;;;;5015305;28;20499;-60
2021/08/27 04:01:30;;;;;;;4.90;3.93;;;15.40;99.90;;;;;;5015159;28;20453;-59
2021/08/27 04:03:57;;;;;;;9.80;4.60;;;15.50;99.90;;;;;;5014095;28;20470;-60
2021/08/27 04:06:25;;;;;;;7.33;4.03;;;15.50;99.90;;;;;;5014988;28;20519;-60
2021/08/27 04:08:52;;;;;;;6.40;4.57;;;15.60;99.90;;;;;;5014421;28;20500;-61
2021/08/27 04:11:19;;;;;;;7.23;4.77;;;15.60;99.90;;;;;;5014728;28;20445;-60
2021/08/27 04:13:46;;;;;;;5.63;4.13;;;15.50;99.90;;;;;;5014374;28;20496;-61
2021/08/27 04:16:13;;;;;;;7.70;4.20;;;15.60;99.90;;;;;;5014857;28;20449;-59
2021/08/27 04:18:40;;;;;;;6.30;5.00;;;15.60;99.90;;;;;;5014268;28;20504;-60
2021/08/27 04:21:08;;;;;;;8.57;4.67;;;15.50;99.90;;;;;;5012331;28;20872;-60
2021/08/27 04:23:36;;;;;;;9.50;4.87;;;15.30;99.90;;;;;;5013281;28;20811;-60
2021/08/27 04:26:04;;;;;;;7.00;4.87;;;15.30;99.90;;;;;;5013705;28;20827;-60
2021/08/27 04:28:31;;;;;;;8.80;5.20;;;15.30;99.90;;;;;;5014344;28;20904;-60
2021/08/27 04:30:58;;;;;;;5.90;4.50;;;15.20;99.90;;;;;;5017939;28;20446;-60
2021/08/27 04:33:25;;;;;;;6.67;4.43;;;15.20;99.90;;;;;;5013202;28;20955;-60
2021/08/27 04:35:52;;;;;;;7.03;4.13;;;15.30;99.90;;;;;;5010612;28;20462;-59
2021/08/27 04:38:19;;;;;;;8.80;4.67;;;15.40;99.90;;;;;;5012931;28;20452;-60
2021/08/27 04:40:48;;;;;;;6.77;4.17;;;15.50;99.90;;;;;;5010324;28;20446;-61
2021/08/27 04:43:15;;;;;;;7.03;4.40;;;15.50;99.90;;;;;;5012991;28;20454;-60
2021/08/27 04:45:42;;;;;;;9.43;5.07;;;15.40;99.90;;;;;;5012837;28;20482;-60
2021/08/27 04:48:09;;;;;;;9.27;4.50;;;15.40;99.90;;;;;;5014873;28;20551;-59
2021/08/27 04:50:37;;;;;;;10.23;4.40;;;15.30;99.90;;;;;;5013063;28;20481;-59
2021/08/27 04:53:04;;;;;;;7.27;5.30;;;15.30;99.90;;;;;;5012824;28;20442;-60
2021/08/27 04:55:31;;;;;;;7.90;4.80;;;15.30;99.90;;;;;;5011950;28;20484;-60
2021/08/27 04:57:59;;;;;;;7.67;4.23;;;15.30;99.90;;;;;;5013071;28;20454;-60
2021/08/27 05:00:26;;;;;;;7.83;4.53;;;15.20;99.90;;;;;;5012226;28;20454;-59
2021/08/27 05:02:53;;;;;;;6.23;4.70;;;15.30;99.90;;;;;;5012841;28;20445;-59
2021/08/27 05:05:20;;;;;;;7.73;4.20;;;15.30;99.90;;;;;;5012921;28;20539;-60
2021/08/27 05:07:47;;;;;;;7.77;4.90;;;15.30;99.90;;;;;;5012717;28;20485;-59
2021/08/27 05:10:15;;;;;;;8.23;4.67;;;15.30;99.90;;;;;;5013217;28;20492;-59
2021/08/27 05:12:42;;;;;;;7.60;4.10;;;15.20;99.90;;;;;;5012473;28;20949;-58
2021/08/27 05:15:12;;;;;;;8.03;5.60;;;15.20;99.90;;;;;;5012762;28;20480;-59
2021/08/27 05:17:40;;;;;;;6.60;4.50;;;15.10;99.90;;;;;;5012860;28;20448;-60
2021/08/27 05:20:09;;;;;;;9.23;5.07;;;15.00;99.90;;;;;;5012141;28;20454;-59
2021/08/27 05:22:36;;;;;;;14.17;4.80;;;14.90;99.90;;;;;;5012739;28;20504;-58
2021/08/27 05:25:03;;;;;;;6.37;4.63;;;15.00;99.90;;;;;;5008842;28;20575;-59
2021/08/27 05:27:30;;;;;;;5.60;4.27;;;15.10;99.90;;;;;;5012451;28;20481;-59
2021/08/27 05:29:58;;;;;;;6.57;4.80;;;15.30;99.90;;;;;;5012407;28;20461;-59
2021/08/27 05:32:27;;;;;;;6.90;4.60;;;15.50;99.90;;;;;;5012251;28;20453;-59
2021/08/27 05:34:54;;;;;;;6.67;4.30;;;15.60;99.90;;;;;;5012825;28;20474;-60
2021/08/27 05:37:26;;;;;;;10.93;4.70;;;15.80;99.90;;;;;;5011714;28;20445;-59
2021/08/27 05:39:53;;;;;;;5.60;4.27;;;16.20;99.90;;;;;;5012434;28;21021;-59
2021/08/27 05:42:20;;;;;;;5.27;3.90;;;16.70;99.90;;;;;;5012247;28;20445;-59
2021/08/27 05:44:47;;;;;;;6.03;3.97;;;16.80;99.90;;;;;;5012207;28;20470;-61
2021/08/27 05:47:14;;;;;;;7.40;4.67;;;16.90;99.90;;;;;;5012147;28;20481;-59
2021/08/27 05:49:42;;;;;;;6.87;3.80;;;16.90;99.90;;;;;;5007832;28;20506;-60
2021/08/27 05:52:09;;;;;;;7.37;4.10;;;16.70;99.90;;;;;;5011979;28;20496;-60
2021/08/27 05:54:36;;;;;;;8.37;4.63;;;16.40;99.90;;;;;;5011777;28;20469;-59
2021/08/27 05:57:03;;;;;;;5.70;4.00;;;16.50;99.90;;;;;;5011157;28;21269;-60
2021/08/27 05:59:30;;;;;;;6.80;4.13;;;16.50;99.90;;;;;;5011474;28;20513;-59
2021/08/27 06:01:57;;;;;;;7.00;4.60;;;16.50;99.90;;;;;;5011547;28;20446;-59
2021/08/27 06:04:24;;;;;;;6.67;4.13;;;16.60;99.90;;;;;;5011838;28;20469;-59
2021/08/27 06:06:53;;;;;;;5.33;4.20;;;16.60;99.90;;;;;;5011038;28;20566;-59
2021/08/27 06:09:20;;;;;;;5.23;3.97;;;16.90;99.90;;;;;;5010666;28;20555;-60
2021/08/27 06:11:47;;;;;;;7.97;4.30;;;17.70;99.90;;;;;;5011217;28;20859;-60
2021/08/27 06:14:14;;;;;;;6.30;4.73;;;18.40;99.90;;;;;;5010231;28;20473;-60
2021/08/27 06:16:41;;;;;;;7.23;4.23;;;18.80;99.90;;;;;;5010036;28;20975;-59
2021/08/27 06:19:08;;;;;;;6.70;4.30;;;19.40;99.90;;;;;;5007825;28;20446;-60
2021/08/27 06:21:37;;;;;;;5.73;3.90;;;19.70;99.90;;;;;;5010488;28;20449;-60
2021/08/27 06:24:06;;;;;;;4.93;4.20;;;20.40;99.90;;;;;;5010447;28;20470;-60
2021/08/27 06:26:33;;;;;;;4.87;3.80;;;21.20;99.90;;;;;;5008281;28;20454;-60
2021/08/27 06:29:03;;;;;;;7.63;4.13;;;21.80;99.90;;;;;;5007173;28;20557;-60
2021/08/27 06:31:31;;;;;;;6.57;4.13;;;22.20;99.90;;;;;;5011160;28;20461;-61
2021/08/27 06:33:58;;;;;;;5.23;4.00;;;22.30;99.90;;;;;;5011237;28;20470;-60
2021/08/27 06:36:25;;;;;;;6.10;4.03;;;22.50;99.90;;;;;;5011461;28;20507;-61
2021/08/27 06:38:52;;;;;;;6.77;3.97;;;22.30;99.90;;;;;;5011355;28;20441;-60
2021/08/27 06:41:20;;;;;;;10.03;4.63;;;22.10;99.90;;;;;;5010778;28;20453;-60
2021/08/27 06:43:48;;;;;;;8.50;4.07;;;22.20;99.90;;;;;;5009672;28;20962;-60
2021/08/27 06:46:17;;;;;;;5.23;3.87;;;22.50;99.90;;;;;;4998532;28;20894;-60
2021/08/27 06:48:44;;;;;;;4.63;3.53;;;23.20;99.90;;;;;;5007640;28;20484;-60
2021/08/27 06:51:11;;;;;;;6.30;3.73;;;23.90;99.90;;;;;;5009461;28;20870;-60
2021/08/27 06:53:38;;;;;;;6.10;4.70;;;24.20;99.90;;;;;;5009056;28;20497;-60
2021/08/27 06:56:05;;;;;;;7.00;4.27;;;24.30;99.90;;;;;;5009763;28;20511;-61
2021/08/27 06:58:34;;;;;;;8.30;4.83;;;24.20;99.90;;;;;;5010488;28;20504;-60
2021/08/27 07:01:02;;;;;;;8.90;4.43;;;24.60;99.90;;;;;;5010945;28;20503;-61
2021/08/27 07:03:29;;;;;;;8.30;4.50;;;25.20;99.90;;;;;;5010428;28;20507;-60
2021/08/27 07:05:56;;;;;;;6.43;4.50;;;24.20;99.90;;;;;;5010111;28;20903;-60
2021/08/27 07:08:24;;;;;;;6.77;4.90;;;24.30;99.90;;;;;;5011236;28;20555;-60
2021/08/27 07:10:51;;;;;;;6.10;4.47;;;24.00;99.90;;;;;;4992149;28;20549;-61
2021/08/27 07:13:18;;;;;;;5.53;4.73;;;24.70;99.90;;;;;;5010768;28;20690;-60
2021/08/27 07:15:46;;;;;;;5.10;4.60;;;25.00;99.90;;;;;;5010876;28;20479;-61
2021/08/27 07:18:14;;;;;;;4.33;3.93;;;25.10;99.90;;;;;;5011508;28;20504;-61
2021/08/27 07:20:41;;;;;;;9.40;4.90;;;25.30;99.90;;;;;;5015240;28;20457;-61
2021/08/27 07:23:09;;;;;;;8.60;5.00;;;25.70;99.90;;;;;;5013661;28;20865;-62
2021/08/27 07:25:37;;;;;;;5.53;4.47;;;25.40;99.90;;;;;;5013849;28;20480;-61
2021/08/27 07:28:04;;;;;;;5.93;4.40;;;24.70;99.90;;;;;;5012691;28;20528;-61
2021/08/27 07:30:31;;;;;;;6.63;4.83;;;25.00;99.90;;;;;;5013736;28;20437;-61
2021/08/27 07:33:00;;;;;;;7.77;4.47;;;25.00;99.90;;;;;;5012339;28;20645;-61
2021/08/27 07:35:27;;;;;;;8.33;5.20;;;24.50;99.90;;;;;;5011004;28;20466;-61
2021/08/27 07:37:54;;;;;;;10.87;4.97;;;23.40;99.90;;;;;;5013278;28;20890;-60
2021/08/27 07:40:21;;;;;;;6.67;4.53;;;23.30;99.90;;;;;;5013705;28;20935;-61
2021/08/27 07:42:48;;;;;;;5.87;5.00;;;23.00;99.90;;;;;;5013517;28;20860;-60
2021/08/27 07:45:16;;;;;;;6.33;4.60;;;22.50;99.90;;;;;;5013427;28;21049;-61
2021/08/27 07:47:44;;;;;;;6.10;4.90;;;21.80;99.90;;;;;;5013508;28;20481;-60
2021/08/27 07:50:13;;;;;;;6.00;4.30;;;21.10;99.90;;;;;;5009447;28;21012;-60
2021/08/27 07:52:40;;;;;;;5.13;4.37;;;20.60;99.90;;;;;;5014028;28;20454;-61
2021/08/27 07:55:08;;;;;;;5.53;4.70;;;20.30;99.90;;;;;;5014394;28;20469;-60
2021/08/27 07:57:42;;;;;;;7.10;4.67;;;19.90;99.90;;;;;;5013701;28;21017;-60
2021/08/27 08:00:10;;;;;;;7.07;4.53;;;19.80;99.90;;;;;;5014203;28;20973;-60
2021/08/27 08:02:37;;;;;;;6.67;4.50;;;19.70;99.90;;;;;;5013294;28;20519;-60
2021/08/27 08:05:05;;;;;;;6.60;4.27;;;19.50;99.90;;;;;;5013367;28;20991;-60
2021/08/27 08:07:33;;;;;;;11.10;5.40;;;19.30;99.90;;;;;;5014093;28;20453;-60
2021/08/27 08:10:00;;;;;;;7.33;5.10;;;19.30;99.90;;;;;;5013581;28;20494;-60
2021/08/27 08:12:27;;;;;;;6.40;4.67;;;19.30;99.90;;;;;;5007640;28;20453;-61
2021/08/27 08:14:55;;;;;;;7.10;4.43;;;19.20;99.90;;;;;;5013700;28;20520;-61
2021/08/27 08:17:21;;;;;;;8.37;4.47;;;18.90;99.90;;;;;;5014535;28;20507;-60
2021/08/27 08:19:48;;;;;;;6.13;4.20;;;18.90;99.90;;;;;;5014345;28;20504;-60
2021/08/27 08:22:17;;;;;;;5.80;3.60;;;19.00;99.90;;;;;;5013886;28;20445;-61
2021/08/27 08:24:45;;;;;;;6.30;4.10;;;19.10;99.90;;;;;;5013828;28;20492;-60
2021/08/27 08:27:12;;;;;;;4.53;3.47;;;19.00;99.90;;;;;;5013428;28;20446;-61
2021/08/27 08:29:39;;;;;;;7.97;4.33;;;19.10;99.90;;;;;;5013204;28;20516;-61
2021/08/27 08:32:07;;;;;;;8.43;5.33;;;18.90;99.90;;;;;;5014168;28;20453;-60
2021/08/27 08:34:34;;;;;;;7.23;4.00;;;18.60;99.90;;;;;;5014439;28;20469;-60
2021/08/27 08:37:01;;;;;;;12.33;4.50;;;18.00;99.90;;;;;;5014245;28;20897;-60
2021/08/27 08:39:28;;;;;;;6.93;4.23;;;17.60;99.90;;;;;;5013921;28;20936;-60
2021/08/27 08:41:57;;;;;;;11.73;4.40;;;17.60;99.90;;;;;;5013481;28;20508;-59
2021/08/27 08:44:24;;;;;;;9.10;3.70;;;17.60;99.90;;;;;;5041210;23;20496;-52
2021/08/27 08:46:53;;;;;;;5.93;4.20;;;17.50;99.90;;;;;;5033851;28;20444;-53
2021/08/27 08:49:23;;;;;;;7.00;4.00;;;17.30;99.90;;;;;;5033839;28;20888;-52
2021/08/27 08:51:51;;;;;;;4.53;3.50;;;17.20;99.90;;;;;;5033991;28;20453;-52
2021/08/27 08:54:19;;;;;;;4.87;4.07;;;17.10;99.90;;;;;;5033640;28;20473;-53
2021/08/27 08:56:46;;;;;;;5.70;4.00;;;17.30;99.90;;;;;;5033267;28;20504;-53
2021/08/27 08:59:15;;;;;;;7.93;4.43;;;17.50;99.90;;;;;;5033514;28;20803;-53
2021/08/27 09:01:42;;;;;;;5.20;3.83;;;17.30;99.90;;;;;;5033951;28;20456;-53
2021/08/27 09:04:09;;;;;;;7.87;4.60;;;17.50;99.90;;;;;;5033258;28;20939;-53
2021/08/27 09:06:36;;;;;;;7.70;4.70;;;17.50;99.90;;;;;;5033667;28;20903;-53
2021/08/27 09:09:04;;;;;;;7.17;4.30;;;17.60;99.90;;;;;;5032909;28;20480;-52
2021/08/27 09:11:32;;;;;;;9.63;4.47;;;17.70;99.90;;;;;;5033607;28;20448;-52
2021/08/27 09:14:01;;;;;;;9.40;4.83;;;17.80;99.90;;;;;;5033276;28;20452;-53
2021/08/27 09:16:32;;;;;;;12.53;5.37;;;17.80;99.90;;;;;;5032920;28;20874;-53
2021/08/27 09:18:59;;;;;;;6.00;4.23;;;17.60;99.90;;;;;;5032943;28;20500;-52
2021/08/27 09:21:32;;;;;;;4.80;3.80;;;17.50;99.90;;;;;;5033233;28;20448;-53
2021/08/27 09:24:16;;;;;;;6.53;3.33;;;17.60;99.90;;;;;;5033187;28;20445;-53
2021/08/27 09:26:44;;;;;;;7.53;4.03;;;17.70;99.90;;;;;;5033190;28;20510;-53
2021/08/27 09:29:11;;;;;;;7.40;3.90;;;17.90;99.90;;;;;;5033018;28;20533;-52
2021/08/27 09:31:42;;;;;;;6.77;4.30;;;18.00;99.90;;;;;;5033043;28;20479;-53
2021/08/27 09:34:09;;;;;;;10.20;4.40;;;18.00;99.90;;;;;;5032287;28;20457;-53
2021/08/27 09:36:36;;;;;;;7.83;4.43;;;18.20;99.90;;;;;;5033072;28;20452;-52
2021/08/27 09:39:07;;;;;;;7.47;4.43;;;17.70;99.90;;;;;;5033011;28;20448;-53
2021/08/27 09:41:35;;;;;;;5.60;4.63;;;17.40;99.90;;;;;;5032797;28;21014;-52
2021/08/27 09:44:03;;;;;;;4.97;3.50;;;17.30;99.90;;;;;;5032370;28;20899;-52
2021/08/27 09:46:35;;;;;;;9.23;4.40;;;17.40;99.90;;;;;;5032110;28;20453;-53
2021/08/27 09:49:05;;;;;;;6.23;4.33;;;17.60;99.90;;;;;;5032831;28;20516;-53
2021/08/27 09:51:43;;;;;;;9.03;4.13;;;17.50;99.90;;;;;;5032043;28;21018;-52
2021/08/27 09:54:10;;;;;;;7.07;4.20;;;17.10;99.90;;;;;;5032022;28;20445;-52
2021/08/27 09:56:48;;;;;;;5.60;3.80;;;17.20;99.90;;;;;;5032579;28;20456;-53
2021/08/27 09:59:15;;;;;;;7.43;4.47;;;17.50;99.90;;;;;;5031256;28;20883;-53
2021/08/27 10:01:46;;;;;;;5.27;3.70;;;17.60;99.90;;;;;;5032614;28;20455;-53
2021/08/27 10:04:15;;;;;;;6.10;4.27;;;17.80;99.90;;;;;;5031589;28;20815;-52
2021/08/27 10:06:42;;;;;;;5.53;3.70;;;18.00;99.90;;;;;;5029778;28;20843;-52
2021/08/27 10:09:10;;;;;;;9.40;5.00;;;18.30;99.90;;;;;;5032277;28;20480;-52
2021/08/27 10:11:37;;;;;;;7.67;4.60;;;18.70;99.90;;;;;;5032141;28;20522;-52
2021/08/27 10:14:05;;;;;;;7.43;4.33;;;18.50;99.90;;;;;;5031185;28;20457;-51
2021/08/27 10:16:34;;;;;;;3.93;3.60;;;18.10;99.90;;;;;;5032396;28;20455;-52
2021/08/27 10:19:02;;;;;;;3.30;3.00;;;18.00;99.90;;;;;;5031994;28;21008;-52
2021/08/27 10:21:31;;;;;;;5.73;3.90;;;18.20;99.90;;;;;;5031868;28;20459;-53
2021/08/27 10:23:58;;;;;;;7.07;4.20;;;18.30;99.90;;;;;;5030884;28;20481;-52
2021/08/27 10:26:27;;;;;;;7.07;5.10;;;18.40;99.90;;;;;;5031358;28;20452;-52
2021/08/27 10:28:54;;;;;;;6.50;4.40;;;18.00;99.90;;;;;;5032006;28;20484;-53
2021/08/27 10:31:42;;;;;;;6.07;4.20;;;17.80;99.90;;;;;;5031505;28;20950;-52
2021/08/27 10:34:09;;;;;;;7.93;4.67;;;17.70;99.90;;;;;;5031265;28;20456;-52
2021/08/27 10:36:55;;;;;;;5.50;4.20;;;17.60;99.90;;;;;;5031744;28;20448;-52
2021/08/27 10:39:52;;;;;;;6.33;4.73;;;17.70;99.90;;;;;;5031787;28;20444;-52
2021/08/27 10:42:49;;;;;;;7.10;4.90;;;17.70;99.90;;;;;;5031601;28;20502;-53
2021/08/27 10:45:17;;;;;;;7.37;4.40;;;18.00;99.90;;;;;;5030515;28;20527;-52
2021/08/27 10:48:09;;;;;;;6.57;4.80;;;18.20;99.90;;;;;;5031094;28;20942;-53
2021/08/27 10:50:37;;;;;;;6.10;4.50;;;17.80;99.90;;;;;;5030481;28;20457;-53
2021/08/27 10:53:31;;;;;;;8.07;5.07;;;17.60;99.90;;;;;;5029922;28;20538;-53
2021/08/27 10:56:01;;;;;;;6.47;4.27;;;17.60;99.90;;;;;;5016549;28;20500;-53
2021/08/27 10:58:44;;;;;;;5.80;4.37;;;17.90;99.90;;;;;;5030876;28;20448;-53
2021/08/27 11:01:26;;;;;;;5.80;4.47;;;18.10;99.90;;;;;;5030256;28;20444;-53
2021/08/27 11:04:04;;;;;;;5.93;4.50;;;18.40;99.90;;;;;;5030237;28;20836;-53
2021/08/27 11:06:31;;;;;;;6.23;3.97;;;18.70;99.90;;;;;;5031091;28;20509;-53
2021/08/27 11:09:15;;;;;;;5.90;4.43;;;18.80;99.90;;;;;;5030702;28;20546;-53
2021/08/27 11:11:42;;;;;;;3.83;3.40;;;19.20;99.90;;;;;;5030782;28;20939;-53
2021/08/27 11:14:18;;;;;;;7.57;4.23;;;19.40;99.90;;;;;;5029714;28;21052;-52
2021/08/27 11:16:55;;;;;;;4.77;3.67;;;19.70;99.90;;;;;;5030892;28;20503;-52
2021/08/27 11:19:29;;;;;;;6.33;4.30;;;19.40;99.90;;;;;;5030510;28;20448;-52
2021/08/27 11:22:17;;;;;;;7.23;4.70;;;19.50;99.90;;;;;;5030721;28;20452;-52
2021/08/27 11:25:15;;;;;;;7.57;3.90;;;19.50;99.90;;;;;;5030730;28;20510;-52
2021/08/27 11:28:15;;;;;;;5.37;4.23;;;19.50;99.90;;;;;;5030791;28;20453;-52
2021/08/27 11:30:47;;;;;;;5.43;4.80;;;19.60;99.90;;;;;;5030252;28;20558;-52
2021/08/27 11:33:56;;;;;;;7.50;5.00;;;19.70;99.90;;;;;;5030169;28;20511;-52
2021/08/27 11:36:24;;;;;;;9.27;4.87;;;19.50;99.90;;;;;;5028013;28;20954;-53
2021/08/27 11:38:56;;;;;;;6.87;4.90;;;19.80;99.90;;;;;;5029620;28;20445;-52
2021/08/27 11:41:26;;;;;;;6.63;5.13;;;19.80;99.90;;;;;;5030530;28;20448;-52
2021/08/27 11:44:10;;;;;;;6.60;4.97;;;20.00;99.90;;;;;;5029943;28;20444;-53
2021/08/27 11:46:39;;;;;;;5.70;4.33;;;20.10;99.90;;;;;;5028202;28;20449;-52
2021/08/27 11:49:16;;;;;;;7.63;4.97;;;20.00;99.90;;;;;;5030549;28;20491;-52
2021/08/27 11:52:06;;;;;;;7.13;4.97;;;19.90;99.90;;;;;;5027179;28;20518;-52
2021/08/27 11:54:33;;;;;;;9.13;5.00;;;20.00;99.90;;;;;;5030494;28;20468;-52
2021/08/27 11:57:01;;;;;;;10.50;5.53;;;20.20;99.90;;;;;;5030603;28;20445;-52
2021/08/27 11:59:29;;;;;;;7.10;6.13;;;20.10;99.90;;;;;;5030697;28;20440;-52
2021/08/27 12:01:57;;;;;;;9.80;6.20;;;20.20;99.90;;;;;;5030040;28;20452;-52
2021/08/27 12:04:30;;;;;;;7.93;6.30;;;20.40;99.90;;;;;;5030160;28;20538;-52
2021/08/27 12:07:11;;;;;;;7.90;6.10;;;20.60;99.90;;;;;;5033156;28;20444;-53
2021/08/27 12:09:39;;;;;;;9.00;6.07;;;20.50;99.90;;;;;;5033148;28;20483;-53
2021/08/27 12:12:31;;;;;;;7.80;5.23;;;20.70;99.90;;;;;;5033608;28;20445;-53
2021/08/27 12:14:58;;;;;;;6.80;5.07;;;20.70;99.90;;;;;;5033834;28;20587;-53
2021/08/27 12:17:29;;;;;;;6.17;4.87;;;21.10;99.90;;;;;;5033679;28;20510;-53
2021/08/27 12:19:58;;;;;;;8.77;5.23;;;21.20;99.90;;;;;;5033222;28;21012;-53
2021/08/27 12:22:27;;;;;;;8.40;5.17;;;20.20;99.90;;;;;;5031180;28;20506;-53
2021/08/27 12:24:55;;;;;;;7.27;5.20;;;19.10;99.90;;;;;;5032393;28;20475;-52
2021/08/27 12:27:27;;;;;;;7.67;5.47;;;18.60;99.90;;;;;;5032831;28;20490;-52
2021/08/27 12:30:05;;;;;;;5.47;4.83;;;18.30;99.90;;;;;;5028845;28;20480;-52
2021/08/27 12:32:35;;;;;;;4.53;4.13;;;18.10;99.90;;;;;;5032536;28;20440;-51
2021/08/27 12:35:02;;;;;;;6.60;4.37;;;18.10;99.90;;;;;;5031262;28;20496;-52
2021/08/27 12:37:30;;;;;;;8.20;4.50;;;18.20;99.90;;;;;;5033181;28;20511;-52
2021/08/27 12:39:57;;;;;;;6.93;4.63;;;18.20;99.90;;;;;;5033393;28;20452;-52
2021/08/27 12:42:29;;;;;;;5.70;3.93;;;18.40;99.90;;;;;;5032198;28;20498;-52
2021/08/27 12:45:00;;;;;;;5.20;4.37;;;18.40;99.90;;;;;;5029178;28;20998;-52
2021/08/27 12:47:37;;;;;;;4.60;3.03;;;18.60;99.90;;;;;;5032688;28;20448;-51
2021/08/27 12:50:10;;;;;;;3.70;3.30;;;18.50;99.90;;;;;;5032675;28;20476;-52
2021/08/27 12:52:38;;;;;;;5.50;3.80;;;18.40;99.90;;;;;;5028192;28;20449;-53
2021/08/27 12:55:20;;;;;;;5.73;3.73;;;18.40;99.90;;;;;;5032524;28;20518;-53
2021/08/27 12:57:50;;;;;;;3.93;3.53;;;18.50;99.90;;;;;;5032390;28;20455;-53
2021/08/27 13:00:22;;;;;;;5.87;4.03;;;18.80;99.90;;;;;;5032394;28;20488;-53
2021/08/27 13:02:50;;;;;;;6.00;4.67;;;19.10;99.90;;;;;;5032081;28;20448;-53